sensor_id;sensor_type;location;lat;lon;timestamp;noise_LAeq;noise_LA_min;noise_LA_max;noise_LA01;noise_LA95
43787;Laerm;29409;49.306;8.500;2023-08-06T00:00:47;40.37;36.69;45.51;;
43787;Laerm;29409;49.306;8.500;2023-08-06T00:01:47;39.81;34.69;46.59;;
43787;Laerm;29409;49.306;8.500;2023-08-06T00:02:48;38.91;35.36;41.46;;
43787;Laerm;29409;49.306;8.500;2023-08-06T00:03:48;40.00;36.20;45.97;;
43787;Laerm;29409;49.306;8.500;2023-08-06T00:04:48;38.95;34.69;41.46;;
43787;Laerm;29409;49.306;8.500;2023-08-06T00:05:49;38.96;33.90;41.46;;
43787;Laerm;29409;49.306;8.500;2023-08-06T00:06:49;40.61;35.66;44.23;;
43787;Laerm;29409;49.306;8.500;2023-08-06T00:07:49;39.88;36.20;43.49;;
43787;Laerm;29409;49.306;8.500;2023-08-06T00:08:50;39.48;35.66;44.07;;
43787;Laerm;29409;49.306;8.500;2023-08-06T00:09:50;41.32;36.98;46.13;;
43787;Laerm;29409;49.306;8.500;2023-08-06T00:10:50;39.32;36.20;42.22;;
43787;Laerm;29409;49.306;8.500;2023-08-06T00:11:51;39.68;36.34;43.19;;
43787;Laerm;29409;49.306;8.500;2023-08-06T00:12:51;39.06;35.36;41.96;;
43787;Laerm;29409;49.306;8.500;2023-08-06T00:13:51;39.42;35.94;41.96;;
43787;Laerm;29409;49.306;8.500;2023-08-06T00:14:52;39.71;35.36;42.29;;
43787;Laerm;29409;49.306;8.500;2023-08-06T00:15:52;38.73;34.31;41.30;;
43787;Laerm;29409;49.306;8.500;2023-08-06T00:16:53;38.80;34.31;41.53;;
43787;Laerm;29409;49.306;8.500;2023-08-06T00:17:53;40.57;35.04;49.50;;
43787;Laerm;29409;49.306;8.500;2023-08-06T00:18:53;39.38;35.36;41.68;;
43787;Laerm;29409;49.306;8.500;2023-08-06T00:19:53;39.19;35.36;42.09;;
43787;Laerm;29409;49.306;8.500;2023-08-06T00:20:54;38.77;33.44;41.22;;
43787;Laerm;29409;49.306;8.500;2023-08-06T00:21:54;39.37;35.94;42.13;;
43787;Laerm;29409;49.306;8.500;2023-08-06T00:22:54;39.36;36.20;42.88;;
43787;Laerm;29409;49.306;8.500;2023-08-06T00:23:54;38.96;35.36;41.68;;
43787;Laerm;29409;49.306;8.500;2023-08-06T00:24:55;38.81;34.69;41.14;;
43787;Laerm;29409;49.306;8.500;2023-08-06T00:26:15;39.04;35.94;42.82;;
43787;Laerm;29409;49.306;8.500;2023-08-06T00:27:15;39.27;35.94;41.61;;
43787;Laerm;29409;49.306;8.500;2023-08-06T00:28:18;39.37;35.36;42.41;;
43787;Laerm;29409;49.306;8.500;2023-08-06T00:29:21;41.42;36.91;45.17;;
43787;Laerm;29409;49.306;8.500;2023-08-06T00:30:21;40.23;35.94;43.76;;
43787;Laerm;29409;49.306;8.500;2023-08-06T00:31:21;39.31;36.20;42.29;;
43787;Laerm;29409;49.306;8.500;2023-08-06T00:32:22;39.63;34.69;44.83;;
43787;Laerm;29409;49.306;8.500;2023-08-06T00:33:22;39.01;35.01;44.35;;
43787;Laerm;29409;49.306;8.500;2023-08-06T00:34:22;39.34;35.36;44.58;;
43787;Laerm;29409;49.306;8.500;2023-08-06T00:35:23;39.76;35.36;45.51;;
43787;Laerm;29409;49.306;8.500;2023-08-06T00:36:49;39.80;35.36;45.14;;
43787;Laerm;29409;49.306;8.500;2023-08-06T00:37:49;38.84;33.44;41.53;;
43787;Laerm;29409;49.306;8.500;2023-08-06T00:38:49;38.88;34.31;41.38;;
43787;Laerm;29409;49.306;8.500;2023-08-06T00:39:49;39.12;35.36;43.58;;
43787;Laerm;29409;49.306;8.500;2023-08-06T00:40:50;39.57;35.94;46.55;;
43787;Laerm;29409;49.306;8.500;2023-08-06T00:41:50;38.75;35.36;41.06;;
43787;Laerm;29409;49.306;8.500;2023-08-06T00:42:50;46.87;36.20;62.24;;
43787;Laerm;29409;49.306;8.500;2023-08-06T00:43:50;38.95;34.31;42.71;;
43787;Laerm;29409;49.306;8.500;2023-08-06T00:44:51;41.46;35.94;53.06;;
43787;Laerm;29409;49.306;8.500;2023-08-06T00:45:51;39.31;35.04;42.98;;
43787;Laerm;29409;49.306;8.500;2023-08-06T00:46:51;39.05;35.36;41.68;;
43787;Laerm;29409;49.306;8.500;2023-08-06T00:47:52;39.01;35.66;41.82;;
43787;Laerm;29409;49.306;8.500;2023-08-06T00:48:52;39.10;34.31;41.68;;
43787;Laerm;29409;49.306;8.500;2023-08-06T00:49:53;38.79;33.44;41.46;;
43787;Laerm;29409;49.306;8.500;2023-08-06T00:50:53;38.82;35.36;41.38;;
43787;Laerm;29409;49.306;8.500;2023-08-06T00:51:54;38.83;35.36;41.82;;
43787;Laerm;29409;49.306;8.500;2023-08-06T00:52:54;38.80;35.66;41.75;;
43787;Laerm;29409;49.306;8.500;2023-08-06T00:53:55;38.71;33.90;41.38;;
43787;Laerm;29409;49.306;8.500;2023-08-06T00:54:56;39.37;35.94;42.09;;
43787;Laerm;29409;49.306;8.500;2023-08-06T00:55:56;40.33;35.04;45.42;;
43787;Laerm;29409;49.306;8.500;2023-08-06T00:56:57;39.31;34.31;41.96;;
43787;Laerm;29409;49.306;8.500;2023-08-06T00:57:58;38.80;35.01;41.82;;
43787;Laerm;29409;49.306;8.500;2023-08-06T00:58:59;39.50;35.36;46.59;;
43787;Laerm;29409;49.306;8.500;2023-08-06T00:59:59;42.28;36.20;49.38;;
43787;Laerm;29409;49.306;8.500;2023-08-06T01:01:00;39.18;34.31;44.11;;
43787;Laerm;29409;49.306;8.500;2023-08-06T01:02:00;39.56;34.69;45.75;;
43787;Laerm;29409;49.306;8.500;2023-08-06T01:03:00;39.23;35.36;41.46;;
43787;Laerm;29409;49.306;8.500;2023-08-06T01:04:01;39.33;35.66;42.82;;
43787;Laerm;29409;49.306;8.500;2023-08-06T01:05:01;39.80;35.94;43.09;;
43787;Laerm;29409;49.306;8.500;2023-08-06T01:06:01;40.42;36.45;45.30;;
43787;Laerm;29409;49.306;8.500;2023-08-06T01:09:56;40.35;35.94;43.90;;
43787;Laerm;29409;49.306;8.500;2023-08-06T01:11:13;40.16;35.94;43.44;;
43787;Laerm;29409;49.306;8.500;2023-08-06T01:13:43;39.98;35.04;43.81;;
43787;Laerm;29409;49.306;8.500;2023-08-06T01:15:56;39.84;35.66;41.46;;
43787;Laerm;29409;49.306;8.500;2023-08-06T01:16:59;39.60;35.04;44.27;;
43787;Laerm;29409;49.306;8.500;2023-08-06T01:18:01;38.96;32.93;41.75;;
43787;Laerm;29409;49.306;8.500;2023-08-06T01:19:02;39.58;34.31;41.46;;
43787;Laerm;29409;49.306;8.500;2023-08-06T01:20:03;39.65;35.04;42.76;;
43787;Laerm;29409;49.306;8.500;2023-08-06T01:21:04;39.05;34.69;42.16;;
43787;Laerm;29409;49.306;8.500;2023-08-06T01:22:04;39.25;33.90;41.68;;
43787;Laerm;29409;49.306;8.500;2023-08-06T01:23:04;39.53;34.69;42.88;;
43787;Laerm;29409;49.306;8.500;2023-08-06T01:24:05;39.88;36.20;42.53;;
43787;Laerm;29409;49.306;8.500;2023-08-06T01:25:05;39.55;34.31;46.38;;
43787;Laerm;29409;49.306;8.500;2023-08-06T01:27:36;39.07;35.36;43.29;;
43787;Laerm;29409;49.306;8.500;2023-08-06T01:29:46;39.07;33.90;41.89;;
43787;Laerm;29409;49.306;8.500;2023-08-06T01:30:48;40.61;35.36;44.15;;
43787;Laerm;29409;49.306;8.500;2023-08-06T01:31:50;39.50;33.44;43.19;;
43787;Laerm;29409;49.306;8.500;2023-08-06T01:32:53;40.20;34.31;43.54;;
43787;Laerm;29409;49.306;8.500;2023-08-06T01:33:55;39.50;33.44;43.81;;
43787;Laerm;29409;49.306;8.500;2023-08-06T01:34:57;43.56;35.66;57.82;;
43787;Laerm;29409;49.306;8.500;2023-08-06T01:36:00;38.85;33.44;41.89;;
43787;Laerm;29409;49.306;8.500;2023-08-06T01:37:01;39.01;33.44;44.47;;
43787;Laerm;29409;49.306;8.500;2023-08-06T01:38:01;38.70;34.31;42.41;;
43787;Laerm;29409;49.306;8.500;2023-08-06T01:39:02;38.81;33.44;42.53;;
43787;Laerm;29409;49.306;8.500;2023-08-06T01:40:06;38.78;33.44;41.61;;
43787;Laerm;29409;49.306;8.500;2023-08-06T01:41:06;39.52;33.44;43.77;;
43787;Laerm;29409;49.306;8.500;2023-08-06T01:42:06;39.18;33.90;42.76;;
43787;Laerm;29409;49.306;8.500;2023-08-06T01:43:08;39.63;33.44;43.04;;
43787;Laerm;29409;49.306;8.500;2023-08-06T01:44:08;39.25;33.90;42.09;;
43787;Laerm;29409;49.306;8.500;2023-08-06T01:45:08;39.57;34.69;42.09;;
43787;Laerm;29409;49.306;8.500;2023-08-06T01:46:09;39.20;33.44;42.03;;
43787;Laerm;29409;49.306;8.500;2023-08-06T01:47:09;38.98;34.31;41.75;;
43787;Laerm;29409;49.306;8.500;2023-08-06T01:48:09;39.04;34.31;42.29;;
43787;Laerm;29409;49.306;8.500;2023-08-06T01:49:11;39.25;33.55;44.76;;
43787;Laerm;29409;49.306;8.500;2023-08-06T01:50:11;39.11;34.31;41.88;;
43787;Laerm;29409;49.306;8.500;2023-08-06T01:51:11;38.98;32.35;42.35;;
43787;Laerm;29409;49.306;8.500;2023-08-06T01:52:13;38.80;33.44;42.24;;
43787;Laerm;29409;49.306;8.500;2023-08-06T01:53:13;38.74;34.31;42.93;;
43787;Laerm;29409;49.306;8.500;2023-08-06T01:54:13;38.84;34.69;42.82;;
43787;Laerm;29409;49.306;8.500;2023-08-06T01:55:14;38.78;34.69;42.03;;
43787;Laerm;29409;49.306;8.500;2023-08-06T01:56:14;38.71;32.93;41.30;;
43787;Laerm;29409;49.306;8.500;2023-08-06T01:57:14;38.89;34.31;41.06;;
43787;Laerm;29409;49.306;8.500;2023-08-06T01:58:15;38.90;34.69;42.53;;
43787;Laerm;29409;49.306;8.500;2023-08-06T01:59:16;39.13;34.69;41.68;;
43787;Laerm;29409;49.306;8.500;2023-08-06T02:00:16;38.21;32.35;40.98;;
43787;Laerm;29409;49.306;8.500;2023-08-06T02:01:16;38.17;33.90;40.98;;
43787;Laerm;29409;49.306;8.500;2023-08-06T02:02:17;38.23;33.90;41.14;;
43787;Laerm;29409;49.306;8.500;2023-08-06T02:03:17;38.21;33.90;40.96;;
43787;Laerm;29409;49.306;8.500;2023-08-06T02:04:17;38.21;33.44;41.06;;
43787;Laerm;29409;49.306;8.500;2023-08-06T02:05:17;38.21;34.31;40.89;;
43787;Laerm;29409;49.306;8.500;2023-08-06T02:06:18;38.24;34.69;40.98;;
43787;Laerm;29409;49.306;8.500;2023-08-06T02:07:18;38.23;33.44;40.53;;
43787;Laerm;29409;49.306;8.500;2023-08-06T02:08:18;38.40;35.36;41.06;;
43787;Laerm;29409;49.306;8.500;2023-08-06T02:09:19;39.39;34.69;41.53;;
43787;Laerm;29409;49.306;8.500;2023-08-06T02:10:19;39.19;35.36;41.68;;
43787;Laerm;29409;49.306;8.500;2023-08-06T02:11:21;38.58;34.31;40.98;;
43787;Laerm;29409;49.306;8.500;2023-08-06T02:12:21;38.57;33.90;41.14;;
43787;Laerm;29409;49.306;8.500;2023-08-06T02:13:21;38.77;34.31;41.22;;
43787;Laerm;29409;49.306;8.500;2023-08-06T02:14:21;38.49;34.69;41.14;;
43787;Laerm;29409;49.306;8.500;2023-08-06T02:15:22;38.26;34.69;40.80;;
43787;Laerm;29409;49.306;8.500;2023-08-06T02:16:22;38.44;34.31;40.89;;
43787;Laerm;29409;49.306;8.500;2023-08-06T02:17:22;38.49;35.04;43.63;;
43787;Laerm;29409;49.306;8.500;2023-08-06T02:18:22;38.39;32.35;42.03;;
43787;Laerm;29409;49.306;8.500;2023-08-06T02:19:23;38.23;34.69;41.14;;
43787;Laerm;29409;49.306;8.500;2023-08-06T02:20:35;38.50;33.90;41.46;;
43787;Laerm;29409;49.306;8.500;2023-08-06T02:21:35;38.44;33.90;41.14;;
43787;Laerm;29409;49.306;8.500;2023-08-06T02:22:36;38.47;34.31;40.62;;
43787;Laerm;29409;49.306;8.500;2023-08-06T02:23:39;38.94;34.69;42.71;;
43787;Laerm;29409;49.306;8.500;2023-08-06T02:24:39;39.42;35.66;45.30;;
43787;Laerm;29409;49.306;8.500;2023-08-06T02:25:40;39.04;35.04;45.17;;
43787;Laerm;29409;49.306;8.500;2023-08-06T02:26:41;38.51;33.90;43.63;;
43787;Laerm;29409;49.306;8.500;2023-08-06T02:27:41;38.66;34.31;43.14;;
43787;Laerm;29409;49.306;8.500;2023-08-06T02:28:41;39.68;35.04;47.44;;
43787;Laerm;29409;49.306;8.500;2023-08-06T02:29:41;38.68;34.31;41.53;;
43787;Laerm;29409;49.306;8.500;2023-08-06T02:30:49;38.69;35.36;44.23;;
43787;Laerm;29409;49.306;8.500;2023-08-06T02:31:49;38.82;35.66;44.89;;
43787;Laerm;29409;49.306;8.500;2023-08-06T02:32:49;39.19;33.97;45.91;;
43787;Laerm;29409;49.306;8.500;2023-08-06T02:33:49;40.28;33.90;53.77;;
43787;Laerm;29409;49.306;8.500;2023-08-06T02:34:50;39.93;35.04;50.75;;
43787;Laerm;29409;49.306;8.500;2023-08-06T02:35:50;39.15;34.69;48.45;;
43787;Laerm;29409;49.306;8.500;2023-08-06T02:36:50;39.01;35.36;41.53;;
43787;Laerm;29409;49.306;8.500;2023-08-06T02:37:51;39.58;35.36;51.47;;
43787;Laerm;29409;49.306;8.500;2023-08-06T02:38:51;39.13;35.36;44.31;;
43787;Laerm;29409;49.306;8.500;2023-08-06T02:39:52;40.58;36.20;50.77;;
43787;Laerm;29409;49.306;8.500;2023-08-06T02:40:52;40.62;35.94;56.42;;
43787;Laerm;29409;49.306;8.500;2023-08-06T02:41:52;39.23;35.94;42.98;;
43787;Laerm;29409;49.306;8.500;2023-08-06T02:42:52;39.26;35.04;42.29;;
43787;Laerm;29409;49.306;8.500;2023-08-06T02:43:53;39.65;35.66;43.85;;
43787;Laerm;29409;49.306;8.500;2023-08-06T02:44:53;39.13;35.94;41.82;;
43787;Laerm;29409;49.306;8.500;2023-08-06T02:45:57;39.43;35.94;48.94;;
43787;Laerm;29409;49.306;8.500;2023-08-06T02:46:58;39.85;35.94;44.07;;
43787;Laerm;29409;49.306;8.500;2023-08-06T02:47:58;39.64;35.94;44.31;;
43787;Laerm;29409;49.306;8.500;2023-08-06T02:48:58;38.98;35.66;41.38;;
43787;Laerm;29409;49.306;8.500;2023-08-06T02:49:59;39.20;34.31;48.13;;
43787;Laerm;29409;49.306;8.500;2023-08-06T02:50:59;40.75;36.20;49.28;;
43787;Laerm;29409;49.306;8.500;2023-08-06T02:51:59;41.28;36.69;46.77;;
43787;Laerm;29409;49.306;8.500;2023-08-06T02:53:00;39.84;36.45;47.67;;
43787;Laerm;29409;49.306;8.500;2023-08-06T02:54:00;41.32;37.35;51.65;;
43787;Laerm;29409;49.306;8.500;2023-08-06T02:55:01;40.00;36.69;44.15;;
43787;Laerm;29409;49.306;8.500;2023-08-06T02:56:01;39.19;34.69;48.07;;
43787;Laerm;29409;49.306;8.500;2023-08-06T02:57:02;39.52;35.36;47.20;;
43787;Laerm;29409;49.306;8.500;2023-08-06T02:58:03;40.09;36.20;43.72;;
43787;Laerm;29409;49.306;8.500;2023-08-06T02:59:03;41.09;36.45;45.27;;
43787;Laerm;29409;49.306;8.500;2023-08-06T03:00:03;40.81;35.94;44.65;;
43787;Laerm;29409;49.306;8.500;2023-08-06T03:01:05;39.91;35.94;43.99;;
43787;Laerm;29409;49.306;8.500;2023-08-06T03:02:05;39.57;35.66;42.85;;
43787;Laerm;29409;49.306;8.500;2023-08-06T03:03:05;40.57;35.66;46.23;;
43787;Laerm;29409;49.306;8.500;2023-08-06T03:04:06;39.51;35.04;44.31;;
43787;Laerm;29409;49.306;8.500;2023-08-06T03:05:06;39.27;35.04;48.51;;
43787;Laerm;29409;49.306;8.500;2023-08-06T03:06:06;39.88;35.66;51.73;;
43787;Laerm;29409;49.306;8.500;2023-08-06T03:07:07;38.55;35.36;42.41;;
43787;Laerm;29409;49.306;8.500;2023-08-06T03:08:07;41.02;34.69;50.31;;
43787;Laerm;29409;49.306;8.500;2023-08-06T03:09:07;41.88;37.52;46.45;;
43787;Laerm;29409;49.306;8.500;2023-08-06T03:10:07;39.89;36.20;43.19;;
43787;Laerm;29409;49.306;8.500;2023-08-06T03:11:08;39.49;35.04;43.14;;
43787;Laerm;29409;49.306;8.500;2023-08-06T03:12:08;39.76;35.36;44.94;;
43787;Laerm;29409;49.306;8.500;2023-08-06T03:13:08;40.63;35.66;53.63;;
43787;Laerm;29409;49.306;8.500;2023-08-06T03:14:08;39.21;35.04;44.87;;
43787;Laerm;29409;49.306;8.500;2023-08-06T03:15:09;38.85;35.04;42.16;;
43787;Laerm;29409;49.306;8.500;2023-08-06T03:16:09;38.83;35.04;41.61;;
43787;Laerm;29409;49.306;8.500;2023-08-06T03:17:09;38.58;34.31;41.22;;
43787;Laerm;29409;49.306;8.500;2023-08-06T03:18:10;39.20;35.66;42.29;;
43787;Laerm;29409;49.306;8.500;2023-08-06T03:19:10;41.08;36.91;51.62;;
43787;Laerm;29409;49.306;8.500;2023-08-06T03:20:10;39.90;36.45;43.29;;
43787;Laerm;29409;49.306;8.500;2023-08-06T03:21:10;40.69;36.91;43.81;;
43787;Laerm;29409;49.306;8.500;2023-08-06T03:22:11;41.06;37.32;46.02;;
43787;Laerm;29409;49.306;8.500;2023-08-06T03:23:12;40.02;36.45;49.70;;
43787;Laerm;29409;49.306;8.500;2023-08-06T03:24:13;41.50;36.20;50.14;;
43787;Laerm;29409;49.306;8.500;2023-08-06T03:25:13;39.87;35.36;44.58;;
43787;Laerm;29409;49.306;8.500;2023-08-06T03:26:14;39.00;33.90;42.03;;
43787;Laerm;29409;49.306;8.500;2023-08-06T03:27:14;39.51;34.69;48.20;;
43787;Laerm;29409;49.306;8.500;2023-08-06T03:28:14;40.30;36.20;52.52;;
43787;Laerm;29409;49.306;8.500;2023-08-06T03:29:14;39.90;33.90;46.93;;
43787;Laerm;29409;49.306;8.500;2023-08-06T03:30:15;39.97;34.31;52.81;;
43787;Laerm;29409;49.306;8.500;2023-08-06T03:31:15;39.36;33.44;48.51;;
43787;Laerm;29409;49.306;8.500;2023-08-06T03:32:16;39.92;35.94;48.13;;
43787;Laerm;29409;49.306;8.500;2023-08-06T03:33:16;39.62;34.31;44.73;;
43787;Laerm;29409;49.306;8.500;2023-08-06T03:34:18;42.26;36.91;55.48;;
43787;Laerm;29409;49.306;8.500;2023-08-06T03:35:18;39.30;34.69;42.65;;
43787;Laerm;29409;49.306;8.500;2023-08-06T03:36:18;44.49;36.91;57.69;;
43787;Laerm;29409;49.306;8.500;2023-08-06T03:37:18;40.14;35.66;43.94;;
43787;Laerm;29409;49.306;8.500;2023-08-06T03:38:19;42.77;37.32;50.48;;
43787;Laerm;29409;49.306;8.500;2023-08-06T03:39:19;40.71;35.36;45.11;;
43787;Laerm;29409;49.306;8.500;2023-08-06T03:40:20;39.49;35.36;42.47;;
43787;Laerm;29409;49.306;8.500;2023-08-06T03:41:20;39.88;35.66;46.84;;
43787;Laerm;29409;49.306;8.500;2023-08-06T03:42:21;40.50;35.36;52.02;;
43787;Laerm;29409;49.306;8.500;2023-08-06T03:43:21;39.78;35.66;43.14;;
43787;Laerm;29409;49.306;8.500;2023-08-06T03:44:21;39.83;35.36;45.11;;
43787;Laerm;29409;49.306;8.500;2023-08-06T03:45:22;41.25;36.69;47.34;;
43787;Laerm;29409;49.306;8.500;2023-08-06T03:46:23;40.52;36.69;51.41;;
43787;Laerm;29409;49.306;8.500;2023-08-06T03:47:23;39.99;35.66;51.47;;
43787;Laerm;29409;49.306;8.500;2023-08-06T03:48:32;42.21;36.91;47.74;;
43787;Laerm;29409;49.306;8.500;2023-08-06T03:49:38;41.86;37.12;51.26;;
43787;Laerm;29409;49.306;8.500;2023-08-06T03:50:39;39.61;36.69;42.09;;
43787;Laerm;29409;49.306;8.500;2023-08-06T03:51:39;38.82;33.90;42.82;;
43787;Laerm;29409;49.306;8.500;2023-08-06T03:52:39;38.70;34.69;41.38;;
43787;Laerm;29409;49.306;8.500;2023-08-06T03:53:39;38.84;33.90;44.31;;
43787;Laerm;29409;49.306;8.500;2023-08-06T03:54:40;38.59;34.69;41.46;;
43787;Laerm;29409;49.306;8.500;2023-08-06T03:55:40;39.32;33.90;43.39;;
43787;Laerm;29409;49.306;8.500;2023-08-06T03:56:41;39.65;34.31;46.84;;
43787;Laerm;29409;49.306;8.500;2023-08-06T03:57:41;41.24;35.94;54.85;;
43787;Laerm;29409;49.306;8.500;2023-08-06T03:58:41;40.51;36.10;52.25;;
43787;Laerm;29409;49.306;8.500;2023-08-06T03:59:42;41.50;36.45;46.89;;
43787;Laerm;29409;49.306;8.500;2023-08-06T04:00:44;40.55;36.20;50.30;;
43787;Laerm;29409;49.306;8.500;2023-08-06T04:01:44;43.45;37.70;61.66;;
43787;Laerm;29409;49.306;8.500;2023-08-06T04:02:44;41.93;36.20;59.43;;
43787;Laerm;29409;49.306;8.500;2023-08-06T04:03:44;41.92;36.45;59.66;;
43787;Laerm;29409;49.306;8.500;2023-08-06T04:04:45;40.81;35.94;50.76;;
43787;Laerm;29409;49.306;8.500;2023-08-06T04:05:45;41.66;36.91;50.84;;
43787;Laerm;29409;49.306;8.500;2023-08-06T04:06:45;43.24;38.05;52.38;;
43787;Laerm;29409;49.306;8.500;2023-08-06T04:07:45;40.98;36.69;50.18;;
43787;Laerm;29409;49.306;8.500;2023-08-06T04:08:46;40.23;35.94;47.46;;
43787;Laerm;29409;49.306;8.500;2023-08-06T04:09:59;42.21;36.20;55.19;;
43787;Laerm;29409;49.306;8.500;2023-08-06T04:10:59;40.68;35.94;55.22;;
43787;Laerm;29409;49.306;8.500;2023-08-06T04:12:00;41.05;36.91;52.84;;
43787;Laerm;29409;49.306;8.500;2023-08-06T04:13:01;44.86;37.32;60.57;;
43787;Laerm;29409;49.306;8.500;2023-08-06T04:14:02;40.09;35.86;48.18;;
43787;Laerm;29409;49.306;8.500;2023-08-06T04:15:02;39.24;35.36;44.73;;
43787;Laerm;29409;49.306;8.500;2023-08-06T04:16:03;39.44;35.36;47.22;;
43787;Laerm;29409;49.306;8.500;2023-08-06T04:17:04;38.96;35.04;41.89;;
43787;Laerm;29409;49.306;8.500;2023-08-06T04:18:04;39.24;35.66;42.59;;
43787;Laerm;29409;49.306;8.500;2023-08-06T04:19:04;39.83;33.90;51.11;;
43787;Laerm;29409;49.306;8.500;2023-08-06T04:20:05;38.85;35.04;42.35;;
43787;Laerm;29409;49.306;8.500;2023-08-06T04:21:05;39.87;36.45;46.89;;
43787;Laerm;29409;49.306;8.500;2023-08-06T04:22:06;39.97;34.69;44.31;;
43787;Laerm;29409;49.306;8.500;2023-08-06T04:23:06;40.04;35.94;43.58;;
43787;Laerm;29409;49.306;8.500;2023-08-06T04:24:07;40.41;36.20;46.33;;
43787;Laerm;29409;49.306;8.500;2023-08-06T04:25:07;39.87;35.04;46.35;;
43787;Laerm;29409;49.306;8.500;2023-08-06T04:26:07;39.29;35.36;43.39;;
43787;Laerm;29409;49.306;8.500;2023-08-06T04:27:08;38.98;35.36;47.61;;
43787;Laerm;29409;49.306;8.500;2023-08-06T04:28:08;42.20;35.04;71.56;;
43787;Laerm;29409;49.306;8.500;2023-08-06T04:29:08;40.96;35.94;48.61;;
43787;Laerm;29409;49.306;8.500;2023-08-06T04:30:09;40.29;36.45;48.39;;
43787;Laerm;29409;49.306;8.500;2023-08-06T04:31:11;39.71;35.36;50.04;;
43787;Laerm;29409;49.306;8.500;2023-08-06T04:32:12;39.85;35.66;47.63;;
43787;Laerm;29409;49.306;8.500;2023-08-06T04:33:13;40.49;35.66;50.25;;
43787;Laerm;29409;49.306;8.500;2023-08-06T04:34:13;41.18;35.94;54.96;;
43787;Laerm;29409;49.306;8.500;2023-08-06T04:35:13;42.77;36.91;57.15;;
43787;Laerm;29409;49.306;8.500;2023-08-06T04:36:13;41.31;37.12;50.27;;
43787;Laerm;29409;49.306;8.500;2023-08-06T04:37:14;40.91;35.36;51.10;;
43787;Laerm;29409;49.306;8.500;2023-08-06T04:38:14;40.58;35.04;48.52;;
43787;Laerm;29409;49.306;8.500;2023-08-06T04:39:14;40.40;36.20;45.99;;
43787;Laerm;29409;49.306;8.500;2023-08-06T04:40:14;40.54;37.32;47.98;;
43787;Laerm;29409;49.306;8.500;2023-08-06T04:41:15;42.68;38.37;52.80;;
43787;Laerm;29409;49.306;8.500;2023-08-06T04:42:15;41.11;37.12;45.48;;
43787;Laerm;29409;49.306;8.500;2023-08-06T04:43:15;39.79;35.94;43.04;;
43787;Laerm;29409;49.306;8.500;2023-08-06T04:44:16;40.21;35.94;46.82;;
43787;Laerm;29409;49.306;8.500;2023-08-06T04:45:16;40.05;36.45;45.94;;
43787;Laerm;29409;49.306;8.500;2023-08-06T04:46:16;39.87;35.94;46.35;;
43787;Laerm;29409;49.306;8.500;2023-08-06T04:47:16;39.62;35.04;44.51;;
43787;Laerm;29409;49.306;8.500;2023-08-06T04:48:17;41.58;37.70;45.93;;
43787;Laerm;29409;49.306;8.500;2023-08-06T04:49:18;40.80;36.20;44.65;;
43787;Laerm;29409;49.306;8.500;2023-08-06T04:50:19;40.47;36.45;48.94;;
43787;Laerm;29409;49.306;8.500;2023-08-06T04:51:20;38.97;35.04;46.36;;
43787;Laerm;29409;49.306;8.500;2023-08-06T04:52:20;38.95;35.04;42.22;;
43787;Laerm;29409;49.306;8.500;2023-08-06T04:53:20;40.70;36.20;55.90;;
43787;Laerm;29409;49.306;8.500;2023-08-06T04:54:20;39.67;35.94;46.64;;
43787;Laerm;29409;49.306;8.500;2023-08-06T04:55:21;40.55;36.20;47.72;;
43787;Laerm;29409;49.306;8.500;2023-08-06T04:56:21;45.24;36.45;62.48;;
43787;Laerm;29409;49.306;8.500;2023-08-06T04:57:21;40.53;36.69;49.66;;
43787;Laerm;29409;49.306;8.500;2023-08-06T04:58:22;40.55;34.31;50.61;;
43787;Laerm;29409;49.306;8.500;2023-08-06T04:59:22;40.64;35.94;49.46;;
43787;Laerm;29409;49.306;8.500;2023-08-06T05:00:22;40.89;35.66;55.01;;
43787;Laerm;29409;49.306;8.500;2023-08-06T05:01:22;40.62;36.20;50.68;;
43787;Laerm;29409;49.306;8.500;2023-08-06T05:02:23;41.07;37.52;48.52;;
43787;Laerm;29409;49.306;8.500;2023-08-06T05:03:26;41.09;38.05;46.45;;
43787;Laerm;29409;49.306;8.500;2023-08-06T05:04:41;42.67;39.34;48.34;;
43787;Laerm;29409;49.306;8.500;2023-08-06T05:05:42;41.03;38.67;46.93;;
43787;Laerm;29409;49.306;8.500;2023-08-06T05:06:42;40.60;37.70;49.49;;
43787;Laerm;29409;49.306;8.500;2023-08-06T05:07:42;40.12;37.52;53.00;;
43787;Laerm;29409;49.306;8.500;2023-08-06T05:08:42;40.20;37.12;52.96;;
43787;Laerm;29409;49.306;8.500;2023-08-06T05:09:43;41.06;37.12;48.34;;
43787;Laerm;29409;49.306;8.500;2023-08-06T05:10:46;40.37;36.45;44.31;;
43787;Laerm;29409;49.306;8.500;2023-08-06T05:11:46;42.63;35.94;50.85;;
43787;Laerm;29409;49.306;8.500;2023-08-06T05:12:47;41.14;37.88;48.36;;
43787;Laerm;29409;49.306;8.500;2023-08-06T05:13:47;40.75;36.69;50.11;;
43787;Laerm;29409;49.306;8.500;2023-08-06T05:14:47;41.02;35.94;55.92;;
43787;Laerm;29409;49.306;8.500;2023-08-06T05:15:47;39.67;36.20;47.24;;
43787;Laerm;29409;49.306;8.500;2023-08-06T05:16:48;42.16;37.12;58.49;;
43787;Laerm;29409;49.306;8.500;2023-08-06T05:17:48;41.13;35.36;53.00;;
43787;Laerm;29409;49.306;8.500;2023-08-06T05:18:48;41.27;36.20;50.42;;
43787;Laerm;29409;49.306;8.500;2023-08-06T05:19:48;40.71;35.94;49.32;;
43787;Laerm;29409;49.306;8.500;2023-08-06T05:20:49;42.11;35.04;55.04;;
43787;Laerm;29409;49.306;8.500;2023-08-06T05:21:49;45.14;36.91;66.70;;
43787;Laerm;29409;49.306;8.500;2023-08-06T05:22:49;40.06;35.66;47.20;;
43787;Laerm;29409;49.306;8.500;2023-08-06T05:23:51;43.23;38.05;51.50;;
43787;Laerm;29409;49.306;8.500;2023-08-06T05:24:51;41.70;37.88;51.85;;
43787;Laerm;29409;49.306;8.500;2023-08-06T05:25:51;40.21;36.69;45.51;;
43787;Laerm;29409;49.306;8.500;2023-08-06T05:26:53;40.23;36.20;47.12;;
43787;Laerm;29409;49.306;8.500;2023-08-06T05:27:53;40.32;36.69;45.04;;
43787;Laerm;29409;49.306;8.500;2023-08-06T05:28:53;41.03;37.32;47.68;;
43787;Laerm;29409;49.306;8.500;2023-08-06T05:29:56;40.51;36.91;49.44;;
43787;Laerm;29409;49.306;8.500;2023-08-06T05:30:56;42.76;36.45;53.24;;
43787;Laerm;29409;49.306;8.500;2023-08-06T05:31:57;40.18;36.20;48.90;;
43787;Laerm;29409;49.306;8.500;2023-08-06T05:32:57;43.45;36.77;61.38;;
43787;Laerm;29409;49.306;8.500;2023-08-06T05:33:57;40.66;36.91;54.51;;
43787;Laerm;29409;49.306;8.500;2023-08-06T05:34:58;41.34;36.69;49.84;;
43787;Laerm;29409;49.306;8.500;2023-08-06T05:35:58;42.87;38.21;55.07;;
43787;Laerm;29409;49.306;8.500;2023-08-06T05:36:58;41.57;37.70;49.98;;
43787;Laerm;29409;49.306;8.500;2023-08-06T05:37:58;40.51;37.12;46.05;;
43787;Laerm;29409;49.306;8.500;2023-08-06T05:38:59;41.45;37.52;53.99;;
43787;Laerm;29409;49.306;8.500;2023-08-06T05:39:59;40.65;37.32;46.10;;
43787;Laerm;29409;49.306;8.500;2023-08-06T05:40:59;39.73;36.69;43.29;;
43787;Laerm;29409;49.306;8.500;2023-08-06T05:41:59;39.83;36.20;42.98;;
43787;Laerm;29409;49.306;8.500;2023-08-06T05:43:00;40.44;37.32;49.82;;
43787;Laerm;29409;49.306;8.500;2023-08-06T05:44:00;41.08;36.20;53.08;;
43787;Laerm;29409;49.306;8.500;2023-08-06T05:45:00;41.23;37.88;51.62;;
43787;Laerm;29409;49.306;8.500;2023-08-06T05:46:00;41.33;36.69;55.11;;
43787;Laerm;29409;49.306;8.500;2023-08-06T05:47:01;44.46;37.12;68.06;;
43787;Laerm;29409;49.306;8.500;2023-08-06T05:48:01;44.63;37.70;59.25;;
43787;Laerm;29409;49.306;8.500;2023-08-06T05:49:01;42.52;36.69;64.07;;